createdAt,value
2019-03-06T00:00:47.419Z,90.06
2019-03-06T00:03:13.682Z,89.62
2019-03-06T00:05:40.134Z,89.70
2019-03-06T00:08:06.365Z,90.72
2019-03-06T00:10:32.918Z,90.42
2019-03-06T00:13:00.313Z,90.73
2019-03-06T00:15:26.833Z,90.82
2019-03-06T00:17:53.212Z,91.12
2019-03-06T00:20:19.918Z,91.78
2019-03-06T00:22:46.283Z,91.81
2019-03-06T00:25:12.459Z,91.80
2019-03-06T00:27:38.671Z,91.46
2019-03-06T00:30:10.897Z,92.00
2019-03-06T00:32:37.030Z,91.97
2019-03-06T00:35:06.246Z,91.93
2019-03-06T00:37:32.292Z,91.74
2019-03-06T00:40:00.442Z,91.83
2019-03-06T00:42:26.656Z,91.47
2019-03-06T00:44:52.782Z,91.60
2019-03-06T00:47:19.188Z,91.44
2019-03-06T00:49:45.339Z,91.59
2019-03-06T00:52:11.438Z,91.36
2019-03-06T00:54:37.470Z,91.39
2019-03-06T00:57:03.680Z,91.19
2019-03-06T00:59:29.806Z,91.26
2019-03-06T01:01:55.933Z,91.18
2019-03-06T01:04:21.968Z,91.10
2019-03-06T01:06:48.126Z,91.07
2019-03-06T01:09:14.295Z,91.90
2019-03-06T01:11:40.399Z,92.09
2019-03-06T01:14:06.625Z,92.46
2019-03-06T01:16:32.907Z,92.00
2019-03-06T01:18:59.074Z,91.33
2019-03-06T01:21:25.200Z,91.79
2019-03-06T01:23:51.207Z,92.05
2019-03-06T01:26:17.563Z,92.31
2019-03-06T01:28:43.590Z,92.15
2019-03-06T01:31:09.611Z,91.97
2019-03-06T01:33:37.862Z,92.23
2019-03-06T01:36:05.937Z,92.19
2019-03-06T01:38:36.877Z,91.98
2019-03-06T01:41:13.763Z,92.00
2019-03-06T01:46:44.515Z,92.45
2019-03-06T01:49:10.841Z,92.40
2019-03-06T01:51:37.075Z,92.53
2019-03-06T01:54:03.296Z,92.29
2019-03-06T01:56:29.355Z,92.05
2019-03-06T01:58:55.466Z,92.21
2019-03-06T02:01:21.694Z,92.61
2019-03-06T02:03:47.841Z,92.85
2019-03-06T02:06:14.496Z,92.10
2019-03-06T02:08:40.634Z,91.97
2019-03-06T02:11:06.809Z,92.06
2019-03-06T02:13:33.152Z,90.62
2019-03-06T02:15:59.265Z,90.63
2019-03-06T02:18:25.285Z,90.76
2019-03-06T02:20:51.480Z,90.17
2019-03-06T02:23:17.498Z,89.56
2019-03-06T02:25:43.680Z,89.43
2019-03-06T02:28:10.090Z,89.26
2019-03-06T02:30:36.230Z,89.65
2019-03-06T02:33:02.273Z,90.21
2019-03-06T02:35:28.439Z,90.78
2019-03-06T02:37:55.183Z,90.09
2019-03-06T02:40:21.436Z,91.04
2019-03-06T02:42:48.589Z,91.11
2019-03-06T02:45:18.885Z,91.31
2019-03-06T02:47:44.946Z,91.26
2019-03-06T02:50:13.726Z,91.03
2019-03-06T02:52:40.271Z,90.86
2019-03-06T02:55:09.274Z,91.15
2019-03-06T02:57:35.992Z,91.41
2019-03-06T03:00:10.858Z,91.78
2019-03-06T03:02:40.946Z,91.29
2019-03-06T03:05:10.379Z,91.58
2019-03-06T03:07:42.371Z,91.87
2019-03-06T03:10:09.900Z,92.19
2019-03-06T03:12:37.038Z,92.09
2019-03-06T03:15:06.221Z,91.59
2019-03-06T03:17:32.462Z,91.81
2019-03-06T03:19:58.650Z,91.90
2019-03-06T03:22:24.803Z,92.07
2019-03-06T03:24:50.937Z,92.09
2019-03-06T03:27:17.160Z,92.21
2019-03-06T03:29:43.208Z,92.46
2019-03-06T03:32:09.373Z,92.51
2019-03-06T03:34:35.559Z,91.61
2019-03-06T03:37:05.307Z,91.57
2019-03-06T03:39:31.501Z,92.03
2019-03-06T03:41:58.126Z,92.26
2019-03-06T03:44:24.350Z,92.65
2019-03-06T03:46:50.497Z,92.87
2019-03-06T03:49:36.773Z,93.59
2019-03-06T03:52:03.056Z,93.56
2019-03-06T03:54:29.238Z,93.80
2019-03-06T03:56:55.859Z,94.32
2019-03-06T03:59:26.152Z,94.65
2019-03-06T04:01:52.321Z,95.02
2019-03-06T04:04:18.522Z,95.59
2019-03-06T04:06:44.800Z,95.38
2019-03-06T04:09:11.011Z,95.71
2019-03-06T04:11:37.265Z,96.07
2019-03-06T04:14:03.482Z,96.25
2019-03-06T04:16:29.797Z,96.21
2019-03-06T04:18:56.004Z,96.03
2019-03-06T04:21:22.201Z,96.50
2019-03-06T04:23:48.399Z,96.72
2019-03-06T04:26:14.507Z,96.56
2019-03-06T04:28:40.675Z,96.44
2019-03-06T04:31:06.860Z,96.04
2019-03-06T04:33:33.187Z,96.12
2019-03-06T04:35:59.319Z,96.23
2019-03-06T04:38:25.548Z,96.28
2019-03-06T04:40:51.691Z,96.61
2019-03-06T04:43:17.802Z,96.79
2019-03-06T04:45:44.030Z,97.12
2019-03-06T04:48:10.461Z,96.91
2019-03-06T04:50:36.640Z,96.74
2019-03-06T04:53:02.819Z,96.96
2019-03-06T04:55:29.159Z,96.87
2019-03-06T04:57:55.280Z,96.78
2019-03-06T05:00:22.738Z,96.60
2019-03-06T05:02:49.256Z,96.76
2019-03-06T05:05:15.705Z,96.88
2019-03-06T05:07:41.838Z,96.41
2019-03-06T05:10:09.981Z,96.60
2019-03-06T05:12:37.058Z,96.66
2019-03-06T05:15:06.762Z,96.80
2019-03-06T05:17:52.030Z,96.49
2019-03-06T05:20:18.215Z,96.57
2019-03-06T05:22:44.393Z,96.58
2019-03-06T05:25:10.725Z,96.69
2019-03-06T05:27:37.186Z,96.66
2019-03-06T05:30:06.731Z,96.42
2019-03-06T05:35:34.960Z,96.41
2019-03-06T05:38:07.986Z,96.18
2019-03-06T05:40:34.154Z,96.25
2019-03-06T05:43:00.207Z,96.26
2019-03-06T05:45:26.338Z,96.16
2019-03-06T05:47:52.707Z,95.96
2019-03-06T05:50:20.266Z,96.12
2019-03-06T05:52:46.659Z,96.25
2019-03-06T05:55:12.871Z,96.42
2019-03-06T05:57:39.041Z,95.95
2019-03-06T06:00:13.986Z,96.01
2019-03-06T06:02:40.314Z,95.57
2019-03-06T06:05:11.852Z,95.72
2019-03-06T06:07:37.999Z,95.31
2019-03-06T06:10:08.723Z,95.35
2019-03-06T06:12:34.831Z,95.44
2019-03-06T06:15:15.821Z,95.47
2019-03-06T06:17:42.094Z,94.96
2019-03-06T06:20:13.170Z,94.44
2019-03-06T06:22:43.965Z,94.57
2019-03-06T06:25:10.880Z,95.21
2019-03-06T06:27:36.969Z,95.57
2019-03-06T06:30:06.954Z,95.47
2019-03-06T06:32:33.189Z,95.67
2019-03-06T06:34:59.718Z,95.03
2019-03-06T06:37:25.765Z,95.20
2019-03-06T06:39:52.114Z,95.44
2019-03-06T06:42:18.231Z,95.37
2019-03-06T06:44:50.291Z,95.31
2019-03-06T06:47:16.474Z,94.78
2019-03-06T06:49:42.588Z,95.03
2019-03-06T06:52:15.377Z,94.56
2019-03-06T06:54:54.370Z,94.62
2019-03-06T06:57:45.457Z,94.31
2019-03-06T07:00:26.624Z,94.13
2019-03-06T07:03:22.350Z,93.44
2019-03-06T07:05:56.636Z,93.09
2019-03-06T07:08:24.691Z,92.92
2019-03-06T07:10:52.745Z,93.34
2019-03-06T07:13:37.634Z,93.43
2019-03-06T07:16:14.630Z,94.68
2019-03-06T07:18:45.769Z,93.29
2019-03-06T07:21:16.583Z,92.46
2019-03-06T07:23:47.467Z,91.74
2019-03-06T07:26:15.762Z,92.18
2019-03-06T07:28:52.600Z,91.96
2019-03-06T07:31:23.304Z,91.60
2019-03-06T07:34:01.409Z,90.97
2019-03-06T07:36:44.362Z,90.52
2019-03-06T07:39:17.419Z,90.03
2019-03-06T07:42:04.514Z,89.84
2019-03-06T07:44:35.985Z,89.85
2019-03-06T07:47:08.074Z,90.20
2019-03-06T07:49:45.191Z,90.21
2019-03-06T07:52:13.953Z,89.81
2019-03-06T07:54:58.877Z,89.88
2019-03-06T07:57:27.224Z,89.76
2019-03-06T07:59:53.346Z,89.99
2019-03-06T08:02:38.015Z,90.05
2019-03-06T08:05:07.454Z,89.76
2019-03-06T08:07:33.790Z,89.18
2019-03-06T08:10:15.492Z,88.84
2019-03-06T08:12:43.477Z,88.81
2019-03-06T08:15:30.266Z,88.41
2019-03-06T08:17:58.410Z,88.76
2019-03-06T08:20:29.451Z,88.62
2019-03-06T08:23:02.762Z,88.33
2019-03-06T08:25:44.232Z,87.39
2019-03-06T08:28:11.378Z,87.53
2019-03-06T08:30:39.456Z,87.03
2019-03-06T08:33:05.607Z,86.20
2019-03-06T08:35:31.688Z,86.18
2019-03-06T08:37:57.821Z,86.39
2019-03-06T08:40:24.016Z,86.59
2019-03-06T08:42:50.106Z,85.80
2019-03-06T08:45:18.163Z,85.46
2019-03-06T08:47:46.232Z,85.43
2019-03-06T08:50:14.775Z,84.96
2019-03-06T08:52:51.884Z,85.77
2019-03-06T08:55:22.826Z,85.67
2019-03-06T08:58:06.605Z,85.40
2019-03-06T09:00:41.008Z,85.16
2019-03-06T09:03:21.652Z,85.19
2019-03-06T09:05:49.820Z,84.79
2019-03-06T09:08:30.572Z,84.16
2019-03-06T09:11:02.844Z,83.07
2019-03-06T09:13:28.496Z,82.62
2019-03-06T09:16:05.590Z,81.96
2019-03-06T09:18:50.419Z,81.47
2019-03-06T09:21:21.179Z,82.12
2019-03-06T09:23:52.105Z,82.20
2019-03-06T09:26:35.139Z,82.37
2019-03-06T09:29:03.506Z,82.25
2019-03-06T09:31:40.198Z,82.41
2019-03-06T09:34:08.313Z,82.02
2019-03-06T09:36:40.147Z,82.39
2019-03-06T09:39:20.894Z,82.59
2019-03-06T09:41:49.042Z,81.91
2019-03-06T09:44:16.958Z,81.43
2019-03-06T09:46:47.806Z,81.51
2019-03-06T09:49:25.403Z,81.64
2019-03-06T09:52:08.575Z,81.20
2019-03-06T09:54:48.729Z,80.83
2019-03-06T09:57:33.127Z,80.19
2019-03-06T10:00:03.714Z,80.22
2019-03-06T10:02:37.688Z,80.19
2019-03-06T10:05:07.192Z,79.72
2019-03-06T10:07:35.155Z,79.25
2019-03-06T10:10:03.605Z,79.06
2019-03-06T10:12:34.694Z,78.65
2019-03-06T10:15:02.614Z,77.26
2019-03-06T10:17:30.538Z,76.45
2019-03-06T10:19:58.597Z,76.07
2019-03-06T10:22:24.718Z,75.65
2019-03-06T10:24:50.837Z,75.39
2019-03-06T10:27:16.938Z,74.58
2019-03-06T10:29:43.082Z,74.44
2019-03-06T10:32:09.218Z,74.67
2019-03-06T10:34:35.432Z,74.54
2019-03-06T10:37:01.929Z,73.65
2019-03-06T10:39:28.338Z,72.93
2019-03-06T10:41:54.454Z,72.09
2019-03-06T10:44:28.808Z,72.56
2019-03-06T10:46:48.891Z,71.53
2019-03-06T10:49:15.071Z,71.72
2019-03-06T10:51:42.270Z,71.86
2019-03-06T10:54:08.490Z,71.52
2019-03-06T10:56:34.777Z,71.91
2019-03-06T10:59:11.058Z,71.88
2019-03-06T11:01:37.481Z,71.88
2019-03-06T11:04:12.449Z,71.85
2019-03-06T11:06:39.104Z,71.41
2019-03-06T11:09:09.076Z,71.00
2019-03-06T11:11:35.235Z,70.65
2019-03-06T11:14:06.242Z,70.36
2019-03-06T11:16:29.910Z,69.63
2019-03-06T11:18:57.034Z,68.79
2019-03-06T11:21:23.603Z,69.17
2019-03-06T11:23:49.866Z,70.06
2019-03-06T11:26:16.058Z,70.92
2019-03-06T11:29:02.236Z,71.72
2019-03-06T11:31:28.802Z,73.34
2019-03-06T11:33:55.284Z,73.46
2019-03-06T11:36:21.936Z,73.24
2019-03-06T11:38:48.155Z,73.33
2019-03-06T11:41:14.419Z,73.83
2019-03-06T11:43:40.609Z,74.11
2019-03-06T11:46:07.770Z,74.41
2019-03-06T11:48:34.334Z,74.03
2019-03-06T11:51:00.471Z,74.61
2019-03-06T11:53:26.595Z,75.17
2019-03-06T11:55:52.997Z,75.24
2019-03-06T11:58:19.359Z,77.03
2019-03-06T12:00:46.429Z,77.02
2019-03-06T12:03:18.001Z,77.41
2019-03-06T12:05:45.039Z,78.01
2019-03-06T12:08:16.412Z,78.58
2019-03-06T12:10:43.182Z,80.19
2019-03-06T12:13:11.533Z,79.57
2019-03-06T12:15:39.006Z,78.46
2019-03-06T12:18:05.702Z,79.72
2019-03-06T12:20:32.340Z,80.19
2019-03-06T12:22:58.945Z,80.33
2019-03-06T12:25:25.252Z,81.15
2019-03-06T12:27:55.840Z,80.64
2019-03-06T12:30:22.350Z,80.25
2019-03-06T12:32:48.558Z,81.28
2019-03-06T12:35:15.895Z,80.82
2019-03-06T12:37:46.954Z,80.03
2019-03-06T12:40:18.857Z,80.64
2019-03-06T12:42:45.045Z,79.59
2019-03-06T12:45:15.015Z,79.99
2019-03-06T12:47:43.006Z,80.22
2019-03-06T12:50:12.979Z,80.22
2019-03-06T12:52:39.163Z,79.47
2019-03-06T12:55:07.818Z,78.67
2019-03-06T12:57:33.942Z,78.93
2019-03-06T13:00:00.360Z,78.48
2019-03-06T13:02:26.398Z,78.01
2019-03-06T13:04:53.414Z,77.47
2019-03-06T13:07:19.824Z,77.45
2019-03-06T13:09:46.299Z,76.87
2019-03-06T13:12:12.474Z,75.97
2019-03-06T13:14:38.610Z,75.56
2019-03-06T13:17:04.753Z,75.49
2019-03-06T13:19:30.903Z,75.23
2019-03-06T13:21:57.007Z,75.10
2019-03-06T13:24:23.062Z,74.49
2019-03-06T13:26:49.261Z,73.83
2019-03-06T13:29:15.624Z,73.46
2019-03-06T13:31:41.742Z,73.04
2019-03-06T13:34:12.567Z,73.80
2019-03-06T13:36:38.715Z,73.80
2019-03-06T13:39:06.690Z,73.37
2019-03-06T13:41:33.040Z,73.24
2019-03-06T13:43:59.171Z,73.05
2019-03-06T13:46:25.583Z,72.83
2019-03-06T13:48:51.727Z,72.10
2019-03-06T13:51:17.878Z,72.17
2019-03-06T13:53:44.054Z,71.46
2019-03-06T13:56:10.229Z,71.23
2019-03-06T13:58:36.368Z,71.53
2019-03-06T14:01:05.709Z,71.81
2019-03-06T14:03:32.613Z,71.95
2019-03-06T14:05:59.478Z,72.14
2019-03-06T14:08:25.696Z,71.49
2019-03-06T14:10:51.809Z,71.63
2019-03-06T14:13:17.971Z,71.06
2019-03-06T14:15:53.435Z,71.79
2019-03-06T14:18:12.268Z,72.03
2019-03-06T14:20:38.450Z,71.92
2019-03-06T14:23:04.923Z,71.70
2019-03-06T14:25:32.364Z,71.18
2019-03-06T14:27:58.788Z,71.07
2019-03-06T14:30:27.387Z,71.23
2019-03-06T14:32:53.747Z,70.59
2019-03-06T14:35:24.042Z,70.97
2019-03-06T14:37:50.285Z,70.98
2019-03-06T14:40:33.077Z,71.10
2019-03-06T14:43:00.198Z,71.28
2019-03-06T14:45:26.404Z,71.19
2019-03-06T14:47:52.624Z,71.30
2019-03-06T14:50:19.023Z,71.73
2019-03-06T14:52:45.247Z,71.09
2019-03-06T14:55:12.268Z,70.97
2019-03-06T14:57:38.665Z,74.79
2019-03-06T15:00:08.972Z,71.02
2019-03-06T15:02:35.245Z,71.00
2019-03-06T15:05:01.408Z,71.48
2019-03-06T15:07:27.554Z,71.52
2019-03-06T15:09:53.846Z,71.83
2019-03-06T15:12:20.022Z,71.83
2019-03-06T15:14:46.374Z,72.21
2019-03-06T15:17:12.493Z,72.17
2019-03-06T15:19:39.297Z,72.12
2019-03-06T15:22:05.564Z,72.40
2019-03-06T15:24:40.717Z,72.82
2019-03-06T15:26:59.911Z,72.54
2019-03-06T15:29:26.118Z,72.84
2019-03-06T15:31:52.451Z,72.55
2019-03-06T15:34:18.712Z,72.66
2019-03-06T15:36:44.916Z,73.11
2019-03-06T15:39:26.067Z,72.71
2019-03-06T15:42:00.133Z,72.64
2019-03-06T15:44:21.155Z,73.19
2019-03-06T15:46:49.518Z,73.46
2019-03-06T15:49:15.819Z,73.48
2019-03-06T15:51:41.941Z,73.85
2019-03-06T15:54:08.170Z,73.76
2019-03-06T15:56:34.601Z,74.15
2019-03-06T15:59:00.809Z,74.20
2019-03-06T16:01:26.913Z,74.12
2019-03-06T16:03:53.253Z,73.96
2019-03-06T16:06:20.579Z,73.81
2019-03-06T16:08:47.134Z,73.99
2019-03-06T16:11:13.282Z,74.18
2019-03-06T16:13:39.491Z,74.36
2019-03-06T16:16:06.311Z,74.36
2019-03-06T16:18:32.845Z,74.39
2019-03-06T16:20:58.965Z,74.53
2019-03-06T16:23:25.343Z,74.55
2019-03-06T16:25:51.534Z,74.73
2019-03-06T16:28:17.627Z,74.94
2019-03-06T16:30:43.836Z,74.75
2019-03-06T16:33:09.977Z,74.87
2019-03-06T16:35:36.409Z,75.14
2019-03-06T16:38:03.067Z,75.20
2019-03-06T16:40:30.577Z,75.17
2019-03-06T16:42:57.033Z,75.18
2019-03-06T16:45:24.790Z,74.99
2019-03-06T16:47:51.494Z,75.25
2019-03-06T16:50:18.871Z,75.03
2019-03-06T16:52:45.415Z,75.04
2019-03-06T16:55:14.683Z,75.28
2019-03-06T16:57:40.840Z,75.27
2019-03-06T17:00:22.401Z,75.26
2019-03-06T17:02:48.886Z,75.50
2019-03-06T17:05:17.804Z,75.49
2019-03-06T17:07:44.093Z,75.54
2019-03-06T17:10:10.827Z,75.36
2019-03-06T17:12:37.131Z,75.26
2019-03-06T17:15:06.994Z,75.55
2019-03-06T17:17:33.376Z,75.36
2019-03-06T17:19:59.710Z,75.45
2019-03-06T17:22:30.806Z,75.48
2019-03-06T17:24:57.019Z,75.26
2019-03-06T17:27:23.880Z,75.44
2019-03-06T17:29:50.125Z,75.20
2019-03-06T17:32:17.717Z,75.13
2019-03-06T17:34:43.802Z,75.30
2019-03-06T17:37:10.118Z,75.22
2019-03-06T17:39:36.275Z,74.18
2019-03-06T17:42:02.974Z,74.74
2019-03-06T17:44:29.436Z,74.33
2019-03-06T17:46:55.560Z,74.48
2019-03-06T17:49:22.132Z,74.51
2019-03-06T17:51:48.253Z,74.43
2019-03-06T17:54:14.820Z,74.09
2019-03-06T17:56:40.952Z,73.75
2019-03-06T17:59:07.197Z,73.83
2019-03-06T18:01:33.645Z,73.72
2019-03-06T18:04:01.808Z,73.74
2019-03-06T18:06:27.989Z,74.70
2019-03-06T18:08:54.311Z,74.68
2019-03-06T18:11:20.508Z,75.08
2019-03-06T18:13:54.690Z,75.07
2019-03-06T18:16:20.949Z,75.45
2019-03-06T18:18:47.172Z,75.54
2019-03-06T18:21:13.531Z,75.65
2019-03-06T18:23:39.651Z,75.49
2019-03-06T18:26:06.184Z,75.30
2019-03-06T18:28:32.578Z,75.04
2019-03-06T18:30:59.308Z,75.56
2019-03-06T18:33:25.560Z,75.69
2019-03-06T18:35:51.715Z,75.41
2019-03-06T18:38:17.917Z,74.65
2019-03-06T18:40:45.169Z,74.57
2019-03-06T18:43:11.396Z,74.46
2019-03-06T18:45:37.496Z,74.38
2019-03-06T18:48:04.008Z,73.92
2019-03-06T18:50:30.090Z,74.00
2019-03-06T18:52:56.235Z,74.09
2019-03-06T18:55:22.389Z,73.75
2019-03-06T18:57:49.898Z,73.68
2019-03-06T19:00:23.749Z,73.98
2019-03-06T19:02:51.947Z,73.85
2019-03-06T19:05:18.998Z,73.91
2019-03-06T19:07:45.355Z,73.85
2019-03-06T19:10:16.833Z,73.47
2019-03-06T19:12:43.142Z,73.73
2019-03-06T19:15:12.732Z,73.38
2019-03-06T19:17:38.985Z,73.43
2019-03-06T19:20:06.622Z,72.81
2019-03-06T19:22:32.824Z,72.53
2019-03-06T19:25:00.305Z,72.06
2019-03-06T19:27:26.449Z,72.52
2019-03-06T19:29:52.718Z,72.69
2019-03-06T19:32:19.391Z,73.05
2019-03-06T19:34:45.535Z,73.97
2019-03-06T19:37:13.794Z,74.15
2019-03-06T19:39:40.311Z,73.78
2019-03-06T19:42:06.720Z,73.58
2019-03-06T19:44:33.127Z,73.50
2019-03-06T19:46:59.331Z,73.44
2019-03-06T19:49:25.467Z,73.56
2019-03-06T19:52:11.727Z,73.49
2019-03-06T19:54:37.916Z,73.28
2019-03-06T19:57:04.451Z,73.21
2019-03-06T19:59:33.949Z,72.62
2019-03-06T20:02:00.153Z,72.68
2019-03-06T20:04:26.418Z,73.17
2019-03-06T20:06:53.214Z,74.57
2019-03-06T20:09:23.901Z,75.07
2019-03-06T20:11:50.034Z,76.20
2019-03-06T20:14:16.412Z,77.49
2019-03-06T20:16:42.707Z,78.63
2019-03-06T20:19:09.945Z,79.22
2019-03-06T20:21:36.202Z,79.87
2019-03-06T20:24:02.397Z,81.62
2019-03-06T20:26:28.618Z,81.76
2019-03-06T20:28:54.805Z,82.81
2019-03-06T20:31:21.002Z,83.88
2019-03-06T20:33:47.206Z,83.53
2019-03-06T20:36:13.388Z,84.04
2019-03-06T20:38:39.586Z,84.30
2019-03-06T20:41:05.863Z,85.00
2019-03-06T20:43:32.044Z,84.76
2019-03-06T20:45:58.431Z,85.55
2019-03-06T20:48:24.602Z,85.56
2019-03-06T20:51:10.688Z,86.02
2019-03-06T20:53:36.835Z,86.40
2019-03-06T20:56:02.941Z,86.92
2019-03-06T20:58:29.166Z,86.98
2019-03-06T21:00:55.295Z,86.78
2019-03-06T21:03:21.804Z,87.39
2019-03-06T21:05:49.198Z,87.49
2019-03-06T21:08:15.921Z,87.82
2019-03-06T21:10:42.059Z,88.08
2019-03-06T21:13:08.207Z,87.79
2019-03-06T21:15:34.331Z,88.60
2019-03-06T21:18:02.115Z,88.23
2019-03-06T21:20:28.244Z,88.48
2019-03-06T21:22:54.379Z,88.75
2019-03-06T21:25:21.050Z,88.54
2019-03-06T21:27:47.717Z,89.07
2019-03-06T21:30:20.683Z,89.17
2019-03-06T21:32:46.860Z,89.14
2019-03-06T21:35:13.263Z,90.00
2019-03-06T21:37:39.824Z,90.18
2019-03-06T21:40:11.267Z,90.65
2019-03-06T21:42:37.439Z,91.00
2019-03-06T21:45:07.269Z,91.03
2019-03-06T21:47:33.359Z,91.62
2019-03-06T21:50:01.301Z,91.72
2019-03-06T21:52:27.672Z,91.68
2019-03-06T21:54:53.756Z,92.04
2019-03-06T21:57:19.993Z,92.30
2019-03-06T21:59:46.102Z,92.66
2019-03-06T22:02:12.492Z,92.96
2019-03-06T22:04:38.838Z,92.76
2019-03-06T22:07:04.982Z,92.88
2019-03-06T22:09:31.164Z,93.27
2019-03-06T22:11:57.294Z,93.36
2019-03-06T22:14:23.421Z,93.24
2019-03-06T22:16:50.325Z,93.80
2019-03-06T22:19:16.493Z,93.56
2019-03-06T22:21:42.620Z,93.43
2019-03-06T22:24:08.870Z,93.14
2019-03-06T22:26:35.021Z,93.38
2019-03-06T22:29:01.247Z,93.63
2019-03-06T22:31:27.374Z,93.51
2019-03-06T22:33:53.682Z,93.26
2019-03-06T22:36:20.013Z,93.45
2019-03-06T22:38:46.276Z,93.46
2019-03-06T22:41:12.632Z,94.14
2019-03-06T22:43:40.942Z,94.11
2019-03-06T22:46:07.094Z,93.81
2019-03-06T22:48:33.461Z,94.03
2019-03-06T22:50:59.640Z,93.77
2019-03-06T22:53:26.206Z,93.68
2019-03-06T22:55:52.420Z,93.99
2019-03-06T22:58:18.537Z,93.93
2019-03-06T23:00:55.407Z,93.93
2019-03-06T23:03:21.964Z,94.05
2019-03-06T23:05:48.123Z,94.59
2019-03-06T23:08:14.940Z,94.65
2019-03-06T23:10:41.158Z,94.22
2019-03-06T23:13:07.183Z,93.99
2019-03-06T23:15:33.322Z,94.20
2019-03-06T23:17:59.773Z,94.92
2019-03-06T23:20:26.010Z,94.93
2019-03-06T23:22:52.299Z,94.69
2019-03-06T23:25:18.489Z,93.88
2019-03-06T23:27:44.800Z,93.51
2019-03-06T23:30:12.492Z,93.90
2019-03-06T23:32:38.617Z,93.57
2019-03-06T23:35:05.644Z,93.85
2019-03-06T23:37:31.868Z,93.83
2019-03-06T23:39:57.985Z,93.84
2019-03-06T23:42:24.152Z,93.62
2019-03-06T23:44:50.263Z,93.83
2019-03-06T23:47:16.699Z,93.71
2019-03-06T23:49:46.078Z,92.90
2019-03-06T23:52:14.558Z,92.16
2019-03-06T23:54:40.707Z,92.65
2019-03-06T23:57:06.881Z,92.96
2019-03-06T23:59:34.264Z,92.85
